Time;durP1;ratioP1;P1;durP2;ratioP2;P2;SDS_P1;SDS_P2;PMS_P1;PMS_P2;Temp;Humidity;BMP_temperature;BMP_pressure;BME280_temperature;BME280_humidity;BME280_pressure;Samples;Min_cycle;Max_cycle;Signal;HPM_P1;HPM_P2
2021/11/02 00:01:01;;;;;;;3.40;2.03;;;8.20;99.90;;;9.26;94.85;98929.25;4958690;28;20039;-80
2021/11/02 00:03:27;;;;;;;8.63;2.00;;;8.30;99.90;;;9.36;94.72;98932.09;4958253;28;20413;-81
2021/11/02 00:05:53;;;;;;;7.55;1.65;;;8.40;99.90;;;9.42;94.60;98935.28;4976262;28;20085;-80
2021/11/02 00:08:19;;;;;;;7.28;1.88;;;8.40;99.90;;;9.47;93.94;98941.28;4954200;29;20023;-81
2021/11/02 00:10:45;;;;;;;5.30;1.48;;;8.50;99.90;;;9.56;93.83;98928.97;4956756;28;20031;-80
2021/11/02 00:13:11;;;;;;;6.40;1.35;;;8.60;99.90;;;9.61;93.26;98934.97;4956106;28;20031;-78
2021/11/02 00:15:42;;;;;;;5.55;1.60;;;8.60;99.90;;;9.77;92.33;98937.38;4956354;29;20027;-79
2021/11/02 00:18:09;;;;;;;7.93;1.52;;;8.70;99.90;;;9.82;92.54;98932.25;4939198;29;20541;-80
2021/11/02 00:20:37;;;;;;;5.20;1.60;;;8.70;99.90;;;9.81;92.33;98941.81;4955330;28;20031;-82
2021/11/02 00:23:08;;;;;;;6.25;1.42;;;8.70;99.90;;;9.73;92.68;98944.97;4938905;29;20031;-80
2021/11/02 00:25:36;;;;;;;7.55;1.45;;;8.70;99.90;;;9.84;92.11;98949.38;4938980;29;20032;-80
2021/11/02 00:28:04;;;;;;;4.28;1.30;;;8.80;99.90;;;9.79;92.43;98935.78;4956222;29;20031;-79
2021/11/02 00:30:32;;;;;;;8.65;1.42;;;8.80;99.90;;;9.75;92.50;98942.56;4938846;29;20031;-80
2021/11/02 00:32:59;;;;;;;12.45;2.10;;;8.80;99.90;;;9.86;91.70;98937.81;4956615;28;20039;-85
2021/11/02 00:35:26;;;;;;;8.02;2.10;;;8.70;99.90;;;9.86;91.98;98930.25;4957039;29;20035;-82
2021/11/02 00:37:53;;;;;;;4.35;1.70;;;8.80;99.90;;;9.87;92.03;98939.41;4956370;29;20083;-80
2021/11/02 00:40:21;;;;;;;6.15;1.52;;;8.80;99.90;;;9.82;92.23;98937.81;4956106;28;20067;-79
2021/11/02 00:43:00;;;;;;;5.10;1.60;;;8.80;99.90;;;9.82;92.47;98931.44;4938924;29;20042;-80
2021/11/02 00:45:31;;;;;;;4.95;1.30;;;8.80;99.90;;;9.86;92.64;98938.63;4955795;29;20123;-80
2021/11/02 00:48:08;;;;;;;4.78;1.33;;;8.80;99.90;;;9.84;92.37;98940.19;4959145;29;20444;-82
2021/11/02 00:50:44;;;;;;;8.80;2.45;;;8.70;99.90;;;9.89;92.06;98935.03;4931761;29;20059;-82
2021/11/02 00:53:12;;;;;;;9.43;1.75;;;8.70;99.90;;;9.90;92.39;98939.44;4941952;29;20031;-80
2021/11/02 00:55:40;;;;;;;9.18;2.20;;;8.80;99.90;;;9.86;92.83;98946.19;4923490;29;20059;-80
2021/11/02 00:58:06;;;;;;;6.30;1.45;;;8.80;99.90;;;9.89;92.43;98935.03;4944146;29;20035;-82
2021/11/02 01:00:38;;;;;;;4.88;1.58;;;8.80;99.90;;;9.80;92.79;98934.63;4931505;29;20047;-81
2021/11/02 01:03:07;;;;;;;6.78;2.20;;;8.80;99.90;;;9.87;92.72;98939.41;4958200;29;20560;-81
2021/11/02 01:05:35;;;;;;;7.25;1.30;;;8.80;99.90;;;9.79;93.11;98935.78;4957728;28;20049;-82
2021/11/02 01:08:02;;;;;;;6.72;1.58;;;8.70;99.90;;;9.80;92.87;98933.81;4967916;28;20062;-81
2021/11/02 01:10:30;;;;;;;3.92;1.88;;;8.70;99.90;;;9.82;93.40;98929.47;4983614;28;20055;-83
2021/11/02 01:12:55;;;;;;;8.57;1.85;;;8.70;99.90;;;9.87;93.13;98931.06;4995204;28;20092;-79
2021/11/02 01:15:28;;;;;;;3.03;1.38;;;8.80;99.90;;;9.91;93.37;98934.66;4977258;28;20428;-80
2021/11/02 01:17:57;;;;;;;5.80;1.60;;;8.70;99.90;;;9.92;92.91;98920.31;4976075;28;20027;-80
2021/11/02 01:20:25;;;;;;;5.57;1.77;;;8.80;99.90;;;9.94;92.84;98925.50;4958700;28;20060;-77
2021/11/02 01:22:51;;;;;;;7.32;1.35;;;8.80;99.90;;;9.91;93.05;98932.66;4942335;28;20038;-80
2021/11/02 01:25:20;;;;;;;5.85;1.80;;;8.80;99.90;;;9.96;92.92;98928.69;4993927;28;20027;-82
2021/11/02 01:27:47;;;;;;;7.75;1.50;;;8.80;99.90;;;9.99;92.82;98925.91;5012588;28;20039;-78
2021/11/02 01:30:14;;;;;;;8.30;1.40;;;8.90;99.90;;;10.01;92.82;98929.09;4997053;28;20034;-80
2021/11/02 01:32:43;;;;;;;7.13;1.70;;;8.90;99.90;;;9.98;93.21;98921.53;4976710;28;20131;-82
2021/11/02 01:35:10;;;;;;;7.55;1.80;;;8.90;99.90;;;9.93;93.04;98921.09;4979448;28;20026;-81
2021/11/02 01:37:39;;;;;;;4.90;1.60;;;8.90;99.90;;;9.95;92.99;98921.53;4994828;28;20046;-79
2021/11/02 01:40:11;;;;;;;5.85;1.10;;;8.90;99.90;;;10.00;93.30;98924.72;4994931;28;20126;-80
2021/11/02 01:42:39;;;;;;;8.10;1.83;;;9.00;99.90;;;10.05;92.76;98929.88;4976086;28;20461;-80
2021/11/02 01:45:17;;;;;;;6.60;1.88;;;9.00;99.90;;;10.10;92.77;98923.13;4975165;28;20027;-80
2021/11/02 01:47:48;;;;;;;6.22;1.42;;;9.00;99.90;;;10.15;92.30;98924.75;4980501;28;20525;-81
2021/11/02 01:50:15;;;;;;;6.13;1.27;;;9.00;99.90;;;10.15;92.75;98924.75;4992722;28;20045;-81
2021/11/02 01:52:42;;;;;;;7.68;1.80;;;9.00;99.90;;;10.15;92.50;98925.56;4953689;28;20038;-82
2021/11/02 01:55:13;;;;;;;6.90;1.40;;;9.00;99.90;;;10.11;92.86;98921.16;4957870;28;20034;-82
2021/11/02 01:57:45;;;;;;;4.82;1.50;;;9.00;99.90;;;10.14;92.52;98925.97;4989957;28;20432;-81
2021/11/02 02:00:18;;;;;;;5.90;1.70;;;9.00;99.90;;;10.19;92.24;98918.00;4989741;28;20375;-82
2021/11/02 02:03:32;;;;;;;4.97;1.30;;;9.00;99.90;;;10.19;92.72;98929.16;4957438;28;20082;-81
2021/11/02 02:06:44;;;;;;;4.65;1.60;;;9.00;99.90;;;10.14;92.99;98918.41;4989554;28;20126;-81
2021/11/02 02:09:48;;;;;;;6.35;1.48;;;9.00;99.90;;;10.11;93.24;98923.94;4981940;28;20113;-80
2021/11/02 02:12:30;;;;;;;6.45;1.30;;;9.10;99.90;;;10.05;93.33;98929.09;4951302;28;20046;-80
2021/11/02 02:15:21;;;;;;;7.60;1.70;;;9.10;99.90;;;10.13;92.84;98924.31;4972356;28;20524;-80
2021/11/02 02:18:17;;;;;;;4.60;1.10;;;9.00;99.90;;;10.16;92.94;98923.56;4973942;28;20034;-78
2021/11/02 02:21:10;;;;;;;5.10;1.27;;;9.10;99.90;;;10.15;93.19;98925.56;4972259;28;20037;-81
2021/11/02 02:24:16;;;;;;;6.75;1.60;;;9.10;99.90;;;10.12;92.99;98925.50;4973206;28;20527;-80
2021/11/02 02:27:40;;;;;;;5.55;1.40;;;9.10;99.90;;;10.15;92.92;98919.97;4973543;28;20406;-81
2021/11/02 02:30:13;;;;;;;6.45;1.58;;;9.10;99.90;;;10.17;93.15;98925.97;4973452;28;20115;-80
2021/11/02 02:32:54;;;;;;;7.68;1.33;;;9.10;99.90;;;10.14;93.28;98920.38;4973158;28;20121;-82
2021/11/02 02:35:22;;;;;;;5.53;1.48;;;9.10;99.90;;;10.16;93.02;98929.94;4973588;28;20055;-81
2021/11/02 02:37:51;;;;;;;4.25;1.10;;;9.10;99.90;;;10.05;93.96;98924.31;4956065;28;20089;-81
2021/11/02 02:40:19;;;;;;;6.55;1.58;;;9.10;99.90;;;10.12;93.39;98917.94;4955980;28;20406;-81
2021/11/02 02:45:17;;;;;;;3.35;1.13;;;9.10;99.90;;;10.14;93.24;98917.59;4980945;28;20045;-80
2021/11/02 02:47:49;;;;;;;10.95;1.55;;;9.10;99.90;;;10.14;93.63;98918.41;4950520;28;20035;-81
2021/11/02 02:50:18;;;;;;;6.28;1.67;;;9.10;99.90;;;10.14;93.16;98918.41;4966182;28;20035;-82
2021/11/02 02:52:46;;;;;;;7.22;1.48;;;9.10;99.90;;;10.12;93.38;98908.78;4970635;28;20050;-81
2021/11/02 02:55:15;;;;;;;5.28;1.52;;;9.00;99.90;;;10.16;93.38;98904.03;4968564;28;20027;-81
2021/11/02 02:57:45;;;;;;;5.75;1.98;;;9.00;99.90;;;10.14;93.37;98910.03;4964404;28;20111;-81
2021/11/02 03:00:12;;;;;;;6.22;1.30;;;9.00;99.90;;;10.10;93.84;98909.19;4962017;28;20031;-81
2021/11/02 03:02:44;;;;;;;5.65;1.17;;;9.00;99.90;;;10.08;93.77;98906.78;4980366;28;20109;-79
2021/11/02 03:05:13;;;;;;;2.85;1.17;;;9.00;99.90;;;10.10;93.84;98908.38;4980057;28;20116;-80
2021/11/02 03:07:41;;;;;;;3.38;1.52;;;8.90;99.90;;;10.02;94.48;98905.56;4980941;28;20401;-81
2021/11/02 03:10:12;;;;;;;4.40;1.30;;;8.90;99.90;;;10.00;94.32;98910.75;4980599;28;20023;-80
2021/11/02 03:12:47;;;;;;;7.95;1.90;;;8.90;99.90;;;10.02;94.15;98910.34;4960285;28;20030;-79
2021/11/02 03:19:09;;;;;;;6.88;1.23;;;8.90;99.90;;;10.01;94.34;98904.00;4946874;28;20043;-80
2021/11/02 03:57:20;;;;;;;6.32;2.00;;;8.60;99.90;;;9.49;96.67;98913.81;4983070;28;20042;-80
2021/11/02 04:00:15;;;;;;;5.75;1.52;;;8.50;99.90;;;9.51;96.60;98911.44;4975507;28;20054;-81
2021/11/02 04:23:31;;;;;;;7.72;1.50;;;7.80;99.90;;;8.75;100.00;98918.22;4982557;28;20093;-80
2021/11/02 04:29:23;;;;;;;4.45;1.60;;;7.60;99.90;;;8.58;100.00;98916.09;4950584;28;20030;-81
2021/11/02 04:35:08;;;;;;;6.63;1.65;;;7.40;99.90;;;8.33;100.00;98913.13;4939385;28;20039;-78
2021/11/02 04:43:39;;;;;;;7.00;2.60;;;7.20;99.90;;;8.14;100.00;98921.66;4990750;28;20038;-80
2021/11/02 05:47:34;;;;;;;4.40;2.08;;;6.50;99.90;;;7.55;100.00;98894.88;4978850;28;20042;-80
2021/11/02 06:08:37;;;;;;;9.85;3.10;;;6.10;99.90;;;7.15;100.00;98892.81;4965823;28;20073;-82
2021/11/02 06:28:37;;;;;;;5.93;2.53;;;6.50;99.90;;;7.52;100.00;98896.44;4972902;28;20037;-82
2021/11/02 06:34:12;;;;;;;9.07;2.88;;;6.70;99.90;;;7.66;100.00;98907.72;4954889;28;20038;-81
2021/11/02 06:56:07;;;;;;;5.63;3.28;;;7.00;99.90;;;7.85;100.00;98903.94;4980954;28;20065;-80
2021/11/02 07:20:38;;;;;;;8.27;3.40;;;8.10;99.90;;;9.67;95.75;98924.22;4985239;28;20478;-81
2021/11/02 07:28:54;;;;;;;5.57;3.70;;;8.60;99.90;;;10.11;92.70;98926.72;4984677;28;20042;-81
2021/11/02 08:46:40;;;;;;;6.13;1.70;;;10.60;99.90;;;11.32;82.88;98942.19;4978200;28;20406;-82
2021/11/02 08:49:10;;;;;;;5.15;1.20;;;10.40;99.90;;;11.25;84.01;98936.63;4976020;28;20034;-81
2021/11/02 08:51:36;;;;;;;5.65;1.50;;;10.30;99.90;;;11.03;85.31;98938.69;4976073;28;20063;-81
2021/11/02 08:54:03;;;;;;;3.38;0.88;;;10.20;99.90;;;10.98;84.83;98937.06;4958499;28;20061;-82
2021/11/02 08:56:29;;;;;;;4.45;1.20;;;10.10;99.90;;;11.04;85.10;98951.47;4976576;28;20382;-80
2021/11/02 08:58:56;;;;;;;3.40;1.20;;;10.00;99.90;;;11.06;84.59;98949.03;4957677;28;20557;-82
2021/11/02 09:01:25;;;;;;;3.30;1.05;;;10.00;99.90;;;11.44;83.43;98950.13;4975048;28;20037;-82
2021/11/02 09:04:07;;;;;;;3.38;1.00;;;10.30;99.90;;;11.83;80.73;98947.19;4941724;28;20403;-80
2021/11/02 09:06:37;;;;;;;2.40;0.93;;;10.60;99.90;;;12.03;79.86;98957.50;4942562;28;20062;-79
2021/11/02 09:09:05;;;;;;;3.30;1.20;;;10.80;99.90;;;12.23;77.80;98951.38;4985598;28;20037;-81
2021/11/02 09:11:34;;;;;;;7.75;1.20;;;10.90;99.90;;;12.08;78.01;98954.25;4981921;28;20516;-83
2021/11/02 09:14:00;;;;;;;1.33;0.70;;;10.90;99.90;;;12.06;78.29;98953.88;4983594;28;20038;-84
2021/11/02 09:16:27;;;;;;;4.00;0.90;;;10.80;99.90;;;11.95;78.58;98955.91;4978041;28;20034;-83
2021/11/02 09:18:56;;;;;;;4.38;1.42;;;10.80;99.90;;;11.54;80.12;98957.69;4978334;28;20502;-83
2021/11/02 09:21:23;;;;;;;2.55;0.80;;;10.50;99.90;;;11.12;80.85;98955.81;4997812;28;20405;-81
2021/11/02 09:23:54;;;;;;;2.50;0.80;;;10.30;99.90;;;11.19;81.29;98955.81;5007936;28;20623;-83
2021/11/02 09:26:25;;;;;;;4.20;1.02;;;10.20;99.90;;;11.20;81.14;98953.81;5005718;28;20358;-82
2021/11/02 09:28:51;;;;;;;3.97;1.00;;;10.20;99.90;;;11.28;81.31;98958.16;4977537;28;20164;-82
2021/11/02 09:31:26;;;;;;;2.08;0.80;;;10.20;99.90;;;11.31;79.84;98960.94;4995801;28;20038;-81
2021/11/02 09:33:52;;;;;;;6.70;0.90;;;10.20;99.90;;;11.23;81.43;98951.00;4974454;28;20159;-81
2021/11/02 09:36:41;;;;;;;2.13;0.73;;;10.20;99.90;;;11.37;80.49;98945.34;4990953;28;20030;-80
2021/11/02 09:39:12;;;;;;;3.75;0.88;;;10.30;99.90;;;11.24;80.95;98949.78;4997622;28;20061;-81
2021/11/02 09:42:16;;;;;;;4.03;1.02;;;10.20;99.90;;;11.24;81.06;98949.78;4961283;28;20041;-81
2021/11/02 09:45:49;;;;;;;3.10;0.80;;;10.20;99.90;;;10.68;83.20;98942.31;4978468;28;20509;-81
2021/11/02 09:49:14;;;;;;;6.07;1.60;;;10.00;99.90;;;11.10;81.95;98947.84;4978918;28;20076;-81
2021/11/02 09:52:16;;;;;;;2.67;0.75;;;10.00;99.90;;;11.31;81.61;98943.38;4978398;28;20038;-79
2021/11/02 09:55:19;;;;;;;2.80;0.80;;;10.10;99.90;;;11.26;81.31;98947.41;4992659;28;20026;-81
2021/11/02 09:58:35;;;;;;;3.95;1.20;;;10.10;99.90;;;11.36;81.42;98949.38;4985868;28;20394;-79
2021/11/02 10:02:06;;;;;;;3.42;1.02;;;10.20;99.90;;;11.43;80.68;98945.75;4984405;28;20395;-81
2021/11/02 10:05:14;;;;;;;1.88;0.60;;;10.30;99.90;;;11.58;79.44;98941.69;4986554;28;20027;-83
2021/11/02 10:08:33;;;;;;;1.83;0.75;;;10.50;99.90;;;12.13;77.30;98945.44;4990196;28;20517;-79
2021/11/02 10:11:36;;;;;;;1.77;0.75;;;10.90;99.90;;;12.86;75.13;98955.66;4930157;29;20043;-80
2021/11/02 10:14:43;;;;;;;6.50;1.20;;;11.50;99.90;;;13.35;73.44;98943.19;4946174;29;20042;-83
2021/11/02 10:18:03;;;;;;;3.45;0.77;;;12.10;99.90;;;13.16;71.50;98947.41;4961036;28;20038;-83
2021/11/02 10:20:59;;;;;;;4.93;0.70;;;12.30;99.90;;;13.27;71.30;98945.25;4955605;28;20110;-80
2021/11/02 10:24:22;;;;;;;5.72;1.23;;;12.20;99.90;;;12.85;72.52;98940.84;4954982;29;20641;-83
2021/11/02 10:27:20;;;;;;;2.42;1.10;;;12.00;99.90;;;13.04;71.61;98937.47;4921648;29;20122;-79
2021/11/02 10:30:49;;;;;;;3.60;0.93;;;11.80;99.90;;;12.90;72.40;98932.00;4937984;29;20031;-83
2021/11/02 10:33:31;;;;;;;4.38;1.25;;;11.60;99.90;;;12.30;75.21;98935.31;4955288;29;20461;-82
2021/11/02 10:36:49;;;;;;;3.13;0.82;;;11.40;99.90;;;12.25;75.36;98935.75;4955474;29;20473;-82
2021/11/02 10:39:41;;;;;;;3.58;0.80;;;11.30;99.90;;;12.10;75.27;98935.03;4937556;29;20039;-81
2021/11/02 10:43:02;;;;;;;4.07;1.10;;;11.20;99.90;;;12.28;75.61;98928.53;4954917;29;20402;-82
2021/11/02 10:45:31;;;;;;;3.42;0.65;;;11.20;99.90;;;12.39;74.95;98932.06;4955186;28;20502;-79
2021/11/02 10:48:10;;;;;;;8.07;1.27;;;11.30;99.90;;;12.13;75.16;98936.25;4954692;29;20126;-79
2021/11/02 10:50:48;;;;;;;2.70;0.77;;;11.20;99.90;;;12.00;76.14;98930.34;4955842;29;20119;-81
2021/11/02 10:53:41;;;;;;;1.80;0.50;;;11.20;99.90;;;12.19;76.72;98940.19;4939204;29;20027;-81
2021/11/02 10:57:02;;;;;;;4.75;1.02;;;11.10;99.90;;;12.44;75.84;98932.41;4956176;29;20038;-81
2021/11/02 10:59:32;;;;;;;2.40;0.90;;;11.30;99.90;;;12.91;74.97;98933.59;4889366;29;20031;-78
2021/11/02 11:02:04;;;;;;;6.45;0.80;;;11.50;99.90;;;13.13;73.72;98937.03;4956666;29;20098;-81
2021/11/02 11:04:33;;;;;;;3.08;0.98;;;11.70;99.90;;;13.13;73.46;98935.00;4939316;28;20406;-81
2021/11/02 11:07:00;;;;;;;4.13;0.80;;;11.90;99.90;;;12.92;73.45;98920.38;4944333;29;20134;-80
2021/11/02 11:09:30;;;;;;;2.60;1.13;;;11.80;99.90;;;12.47;75.02;98930.78;4970882;28;20175;-82
2021/11/02 11:12:03;;;;;;;3.58;0.98;;;11.60;99.90;;;12.38;74.99;98936.88;5001820;28;20042;-80
2021/11/02 11:14:32;;;;;;;4.60;0.70;;;11.50;99.90;;;12.47;74.52;98925.19;4982435;28;20420;-79
2021/11/02 11:17:03;;;;;;;4.32;1.13;;;11.50;99.90;;;12.54;74.81;98931.53;5000426;28;20477;-83
2021/11/02 11:19:46;;;;;;;4.95;1.00;;;11.50;99.90;;;12.76;75.11;98932.13;4989985;28;20025;-79
2021/11/02 11:22:25;;;;;;;2.42;0.73;;;11.50;99.90;;;12.73;74.63;98927.38;5017174;28;20033;-77
2021/11/02 11:25:08;;;;;;;2.03;0.95;;;11.60;99.90;;;12.98;74.46;98927.91;5015339;28;20054;-81
2021/11/02 11:27:55;;;;;;;1.88;0.90;;;11.60;99.90;;;13.13;73.85;98929.38;4965505;28;20040;-80
2021/11/02 11:30:44;;;;;;;4.05;0.75;;;11.80;99.90;;;13.39;73.27;98929.94;4981241;28;20030;-81
2021/11/02 11:33:14;;;;;;;2.33;0.90;;;11.90;99.90;;;13.45;73.12;98929.03;4995524;28;20097;-79
2021/11/02 11:35:46;;;;;;;3.47;0.70;;;12.10;99.90;;;13.66;72.24;98928.78;4998767;28;20100;-81
2021/11/02 11:38:15;;;;;;;1.58;0.75;;;12.10;99.90;;;13.66;70.96;98920.34;4980744;28;20080;-79
2021/11/02 11:40:45;;;;;;;1.25;0.52;;;12.20;99.90;;;13.63;69.79;98921.19;4981246;28;20126;-81
2021/11/02 11:43:15;;;;;;;2.80;0.80;;;12.20;99.90;;;13.44;69.87;98927.44;4980137;28;20038;-83
2021/11/02 11:45:52;;;;;;;3.55;1.00;;;12.10;99.90;;;13.51;70.29;98920.97;4998707;28;20054;-79
2021/11/02 11:48:25;;;;;;;1.88;0.60;;;12.10;99.90;;;13.37;69.93;98921.91;4998861;28;20033;-80
2021/11/02 11:50:56;;;;;;;2.75;0.80;;;12.10;99.90;;;13.33;70.03;98920.34;4998368;28;20053;-83
2021/11/02 11:53:27;;;;;;;1.27;0.73;;;12.00;99.90;;;13.48;70.01;98919.78;4979423;28;20410;-79
2021/11/02 11:56:16;;;;;;;1.77;0.60;;;12.00;99.90;;;13.39;69.64;98922.28;4979097;28;20118;-81
2021/11/02 11:58:51;;;;;;;1.58;0.73;;;12.00;99.90;;;13.24;70.47;98920.06;4948289;28;20115;-82
2021/11/02 12:01:50;;;;;;;5.07;0.63;;;12.00;99.90;;;13.40;70.64;98912.66;4983989;28;20034;-81
2021/11/02 12:04:42;;;;;;;3.47;0.63;;;12.00;99.90;;;13.59;70.38;98914.03;4996001;28;20034;-81
2021/11/02 12:07:35;;;;;;;2.20;0.60;;;12.10;99.90;;;13.42;70.23;98915.84;4978528;28;20461;-83
2021/11/02 12:10:12;;;;;;;0.95;0.60;;;12.10;99.90;;;13.35;70.41;98915.16;4961924;28;20059;-82
2021/11/02 12:12:43;;;;;;;3.38;0.57;;;12.00;99.90;;;13.31;70.89;98912.38;4976668;28;20114;-82
2021/11/02 12:15:17;;;;;;;13.82;1.42;;;12.00;99.90;;;13.24;70.42;98906.06;4975072;28;20449;-79
2021/11/02 12:17:50;;;;;;;22.23;1.98;;;11.90;99.90;;;13.45;70.83;98903.00;4957760;28;20406;-80
2021/11/02 12:20:18;;;;;;;4.82;0.98;;;12.00;99.90;;;13.53;70.64;98907.31;4959558;28;20035;-80
2021/11/02 12:22:54;;;;;;;3.28;0.68;;;12.10;99.90;;;13.47;70.13;98901.38;4974686;28;20030;-81
2021/11/02 12:25:35;;;;;;;2.63;0.68;;;12.20;99.90;;;13.47;68.82;98894.97;4959414;28;20498;-82
2021/11/02 12:28:02;;;;;;;1.42;0.50;;;12.10;99.90;;;13.56;68.71;98893.25;4958894;28;20042;-81
2021/11/02 12:30:28;;;;;;;1.23;0.30;;;12.20;99.90;;;13.58;68.88;98890.03;4976158;28;20035;-80
2021/11/02 12:32:56;;;;;;;0.70;0.45;;;12.20;99.90;;;13.67;68.78;98896.72;4976742;28;20060;-81
2021/11/02 12:35:52;;;;;;;3.42;0.82;;;12.20;99.90;;;13.58;69.48;98890.03;4977307;28;20439;-81
2021/11/02 12:38:40;;;;;;;3.97;0.67;;;12.20;99.90;;;13.71;69.33;98893.84;4959229;28;20027;-80
2021/11/02 12:41:24;;;;;;;2.42;0.73;;;12.30;99.90;;;13.59;69.39;98889.59;4959705;28;20134;-80
2021/11/02 12:44:15;;;;;;;2.55;0.65;;;12.30;99.90;;;13.75;68.79;98891.78;4978793;28;20171;-83
2021/11/02 12:46:47;;;;;;;2.50;0.73;;;12.30;99.90;;;13.89;69.23;98888.00;4958882;28;20093;-81
2021/11/02 12:49:27;;;;;;;3.05;1.08;;;12.40;99.90;;;13.77;69.04;98885.75;4975794;28;20128;-82
2021/11/02 12:52:03;;;;;;;1.67;0.50;;;12.40;99.90;;;13.68;69.54;98880.66;4961210;28;20034;-83
2021/11/02 12:54:31;;;;;;;3.00;0.45;;;12.30;99.90;;;13.62;67.30;98882.34;4958367;28;20035;-83
2021/11/02 12:57:16;;;;;;;2.38;0.60;;;12.30;99.90;;;13.77;67.37;98885.75;4958249;28;20477;-83
2021/11/02 13:00:00;;;;;;;3.38;0.70;;;12.40;99.90;;;13.71;67.42;98882.59;4958494;28;20383;-82
2021/11/02 13:02:40;;;;;;;3.70;0.50;;;12.50;99.90;;;13.92;64.97;98884.34;4978100;28;20035;-83
2021/11/02 13:05:23;;;;;;;2.25;0.40;;;12.60;99.90;;;13.47;65.54;98881.75;4990544;28;20054;-83
2021/11/02 13:08:08;;;;;;;2.75;0.63;;;12.50;99.90;;;13.46;65.90;98874.53;4963641;28;20037;-84
2021/11/02 13:10:36;;;;;;;1.20;0.45;;;12.40;99.90;;;13.24;65.98;98878.03;4976697;28;20034;-83
2021/11/02 13:13:14;;;;;;;1.13;0.38;;;12.20;99.90;;;13.19;67.79;98874.47;4961568;28;20031;-83
2021/11/02 13:15:56;;;;;;;1.98;0.40;;;12.10;99.90;;;12.84;67.67;98876.84;4984823;28;20090;-81
2021/11/02 13:18:39;;;;;;;2.05;0.60;;;11.90;99.90;;;12.67;68.14;98873.00;4992581;28;20036;-82
2021/11/02 13:21:29;;;;;;;1.33;0.40;;;11.80;99.90;;;12.76;69.17;98876.13;4984003;28;20045;-83
2021/11/02 13:24:25;;;;;;;0.70;0.30;;;11.70;99.90;;;12.69;69.03;98871.38;4992774;28;20101;-82
2021/11/02 13:26:55;;;;;;;2.42;0.90;;;11.60;99.90;;;12.51;70.00;98881.16;4997459;28;20033;-79
2021/11/02 13:29:26;;;;;;;1.10;0.55;;;11.50;99.90;;;12.65;68.99;98881.00;4978644;28;20081;-84
2021/11/02 13:31:55;;;;;;;0.77;0.30;;;11.50;99.90;;;12.63;69.48;98878.63;4990798;28;20038;-83
2021/11/02 13:34:29;;;;;;;1.92;0.13;;;11.50;99.90;;;12.34;70.89;98873.69;4978476;28;20030;-82
2021/11/02 13:37:18;;;;;;;0.85;0.35;;;11.40;99.90;;;12.46;71.31;98881.59;4995050;28;20034;-81
2021/11/02 13:40:01;;;;;;;0.63;0.32;;;11.30;99.90;;;12.29;71.31;98876.94;4977467;28;20033;-82
2021/11/02 13:42:52;;;;;;;1.10;0.35;;;11.20;99.90;;;12.19;72.11;98877.81;4993982;28;20037;-83
2021/11/02 13:45:23;;;;;;;1.85;0.40;;;11.20;99.90;;;12.28;71.73;98875.34;4976789;28;20125;-82
2021/11/02 13:47:50;;;;;;;3.92;0.50;;;11.20;99.90;;;12.30;72.00;98873.72;4977183;28;20378;-83
2021/11/02 13:50:18;;;;;;;1.13;0.40;;;11.20;99.90;;;12.45;72.18;98877.22;4994946;28;20030;-82
2021/11/02 13:52:46;;;;;;;2.20;0.40;;;11.30;99.90;;;12.54;71.67;98874.72;4976637;28;20034;-80
2021/11/02 13:55:12;;;;;;;1.23;0.55;;;11.40;99.90;;;12.59;72.50;98877.06;4978504;28;20026;-82
2021/11/02 13:57:38;;;;;;;1.27;0.60;;;11.50;99.90;;;12.72;71.81;98875.34;4996485;28;20112;-83
2021/11/02 14:00:10;;;;;;;3.85;0.60;;;11.50;99.90;;;12.79;72.90;98874.47;4994858;28;20423;-80
2021/11/02 14:02:41;;;;;;;0.85;0.38;;;11.60;99.90;;;12.85;71.93;98868.00;4994096;28;20169;-83
2021/11/02 14:05:12;;;;;;;1.42;0.50;;;11.60;99.90;;;12.49;72.15;98873.16;4961333;28;20050;-80
2021/11/02 14:07:42;;;;;;;0.73;0.40;;;11.60;99.90;;;12.37;73.67;98870.88;4977510;28;20034;-83
2021/11/02 14:10:11;;;;;;;1.90;0.60;;;11.50;99.90;;;12.49;73.75;98875.97;4959430;28;20162;-81
2021/11/02 14:12:53;;;;;;;2.10;0.40;;;11.40;99.90;;;12.40;73.86;98866.44;4974966;28;20038;-82
2021/11/02 14:15:31;;;;;;;1.88;0.60;;;11.40;99.90;;;12.28;73.69;98864.16;4973622;28;20033;-81
2021/11/02 14:17:57;;;;;;;2.00;0.47;;;11.40;99.90;;;12.21;74.15;98861.41;4975239;28;20041;-81
2021/11/02 14:20:55;;;;;;;1.67;0.50;;;11.30;99.90;;;12.31;74.32;98858.53;4958222;28;20482;-80
2021/11/02 14:23:30;;;;;;;0.40;0.40;;;11.20;99.90;;;12.37;74.54;98854.06;4952879;28;20101;-81
2021/11/02 14:26:28;;;;;;;1.27;0.40;;;11.20;99.90;;;12.50;74.00;98855.16;4956964;28;20057;-83
2021/11/02 14:29:10;;;;;;;1.10;0.50;;;11.30;99.90;;;12.44;74.08;98858.81;4958408;28;20080;-82
2021/11/02 14:31:45;;;;;;;1.40;0.55;;;11.30;99.90;;;12.30;74.45;98858.94;4958332;28;20038;-80
2021/11/02 14:34:27;;;;;;;;;;;11.30;99.90;;;12.38;74.35;98860.47;4976142;28;20042;-81
2021/11/02 14:37:25;;;;;;;3.13;0.45;;;11.20;99.90;;;12.24;75.24;98860.59;4959671;28;19921;-80
2021/11/02 14:40:05;;;;;;;0.80;0.47;;;11.20;99.90;;;12.22;75.03;98858.22;4958276;28;20043;-80
2021/11/02 14:42:51;;;;;;;3.88;0.65;;;11.20;99.90;;;12.13;76.04;98864.28;4975058;28;20467;-82
2021/11/02 14:47:47;;;;;;;1.63;0.60;;;11.00;99.90;;;12.05;76.80;98861.94;5002111;28;20043;-80
2021/11/02 14:50:37;;;;;;;1.10;0.70;;;11.00;99.90;;;11.95;77.14;98868.41;5002582;28;20023;-81
2021/11/02 14:53:28;;;;;;;0.63;0.50;;;10.90;99.90;;;11.92;76.96;98860.81;5001801;28;20034;-80
2021/11/02 14:56:15;;;;;;;2.25;0.70;;;10.90;99.90;;;11.84;76.92;98867.69;5000726;28;20065;-81
2021/11/02 14:58:49;;;;;;;0.88;0.50;;;10.80;99.90;;;11.86;77.78;98866.06;4985548;28;20030;-82
2021/11/02 15:01:33;;;;;;;1.23;0.60;;;10.80;99.90;;;11.80;77.51;98859.31;4985123;28;20089;-80
2021/11/02 15:04:18;;;;;;;1.38;0.98;;;10.70;99.90;;;11.87;78.28;98867.66;4985459;28;20062;-80
2021/11/02 15:06:54;;;;;;;3.60;0.73;;;10.70;99.90;;;11.72;78.52;98868.94;4985312;28;20089;-80
2021/11/02 15:09:30;;;;;;;0.83;0.53;;;10.70;99.90;;;11.80;78.26;98870.50;4984414;28;20035;-80
2021/11/02 15:11:57;;;;;;;2.28;0.60;;;10.60;99.90;;;11.70;78.48;98874.16;4983763;28;20050;-78
2021/11/02 15:14:43;;;;;;;1.60;0.75;;;10.60;99.90;;;11.59;79.34;98865.78;4985953;28;20040;-81
2021/11/02 15:17:12;;;;;;;1.42;0.50;;;10.50;99.90;;;11.55;79.72;98865.03;4967234;28;20035;-81
2021/11/02 15:19:41;;;;;;;1.92;0.90;;;10.40;99.90;;;11.40;80.49;98865.47;4980015;28;20042;-82
2021/11/02 15:22:19;;;;;;;4.43;0.75;;;10.40;99.90;;;11.38;80.23;98856.72;4983635;28;20031;-80
2021/11/02 15:24:58;;;;;;;1.67;0.70;;;10.30;99.90;;;11.38;80.72;98862.31;4978817;28;20135;-81
2021/11/02 15:27:32;;;;;;;1.17;0.70;;;10.30;99.90;;;11.30;81.17;98869.91;4961975;28;20030;-82
2021/11/02 15:30:15;;;;;;;0.80;0.55;;;10.20;99.90;;;11.22;81.85;98871.16;4980523;28;20023;-81
2021/11/02 15:32:46;;;;;;;4.32;0.88;;;10.20;99.90;;;11.24;82.01;98867.97;4965893;28;20038;-81
2021/11/02 15:35:22;;;;;;;1.67;0.68;;;10.20;99.90;;;11.17;82.00;98857.63;4982587;28;20026;-83
2021/11/02 15:37:59;;;;;;;2.30;0.98;;;10.20;99.90;;;11.21;82.30;98865.97;4981857;28;20074;-80
2021/11/02 15:40:39;;;;;;;1.80;0.60;;;10.20;99.90;;;11.23;82.40;98869.16;4983569;28;20103;-81
2021/11/02 15:43:11;;;;;;;1.23;0.70;;;10.20;99.90;;;11.17;83.11;98866.00;4982047;28;20205;-81
2021/11/02 15:45:48;;;;;;;0.55;0.50;;;10.20;99.90;;;11.27;83.05;98873.53;4982106;28;20030;-80
2021/11/02 15:48:26;;;;;;;2.67;0.73;;;10.10;99.90;;;11.20;83.28;98873.56;4966931;28;20046;-81
2021/11/02 15:50:56;;;;;;;3.60;0.98;;;10.10;99.90;;;11.15;83.81;98873.97;4981516;28;20035;-82
2021/11/02 15:53:29;;;;;;;1.60;0.70;;;10.10;99.90;;;11.13;84.65;98870.81;4988555;28;20035;-79
2021/11/02 15:56:03;;;;;;;1.80;0.70;;;10.10;99.90;;;11.05;86.05;98872.00;4990994;28;20619;-80
2021/11/02 15:58:33;;;;;;;0.93;0.70;;;10.10;99.90;;;11.01;86.96;98871.25;4971812;28;20509;-82
2021/11/02 16:01:00;;;;;;;1.13;0.75;;;10.00;99.90;;;10.82;88.04;98875.28;4987727;28;20054;-81
2021/11/02 16:03:44;;;;;;;4.32;2.45;;;9.90;99.90;;;10.81;89.46;98873.69;4989737;28;20037;-79
2021/11/02 16:06:17;;;;;;;0.85;0.73;;;9.90;99.90;;;10.76;87.96;98871.28;4989248;28;20026;-81
2021/11/02 16:08:43;;;;;;;1.20;0.70;;;9.80;99.90;;;10.72;88.99;98876.13;4981500;28;20026;-82